Sunday, August 28, 2016, 4:31 PM EDT

KW99, Petersburg, Grant County Airport

Location: Petersburg, WV, United States Lat: 38.983
Local Time: 4:31 PM EDT (20:31 GMT) Lon: -79.133
Time Zone: US/Eastern Elev: 961 ft

Show me the last for .
Show Decoded

2016-08-28 16:15 METAR KW99 282015Z AUTO 07007KT 10SM SCT060 35/21 A3016 RMK AO2 LTG DSNT W
                 T03450206 =
2016-08-28 15:55 METAR KW99 281955Z AUTO 11003KT 10SM CLR 34/21 A3017 RMK AO2 LTG DSNT W
                 T03410206 =
2016-08-28 15:35 METAR KW99 281935Z AUTO 00000KT 10SM CLR 35/21 A3017 RMK AO2 LTG DSNT W AND NW
                 T03450205 =
2016-08-28 15:15 METAR KW99 281915Z AUTO 06003KT 10SM CLR 35/20 A3018 RMK AO2 LTG DSNT W
                 T03450203 =
2016-08-28 14:55 METAR KW99 281855Z AUTO 04005KT 10SM CLR 34/21 A3019 RMK AO2 T03400209 =
2016-08-28 14:35 METAR KW99 281835Z AUTO 36003KT 10SM CLR 34/20 A3020 RMK AO2 T03400203 =
2016-08-28 14:15 METAR KW99 281815Z AUTO 07007KT 040V120 10SM SCT055 34/21 A3020 RMK AO2
                 T03360207 =
2016-08-28 13:55 METAR KW99 281755Z AUTO 08003KT 10SM CLR 33/21 A3021 RMK AO2 T03340205 10336
                 20206 =
2016-08-28 13:35 METAR KW99 281735Z AUTO 05004KT 10SM CLR 33/21 A3021 RMK AO2 T03320210 =
2016-08-28 13:15 METAR KW99 281715Z AUTO 00000KT 10SM CLR 33/21 A3022 RMK AO2 LTG DSNT W
                 T03260210 =
2016-08-28 12:55 METAR KW99 281655Z AUTO 10005KT 10SM CLR 33/21 A3022 RMK AO2 T03250207 =
2016-08-28 12:35 METAR KW99 281635Z AUTO 11004KT 10SM CLR 32/21 A3023 RMK AO2 T03200205 =
2016-08-28 12:15 METAR KW99 281615Z AUTO 06003KT 10SM CLR 32/21 A3023 RMK AO2 T03180205 =
2016-08-28 11:55 METAR KW99 281555Z AUTO 00000KT 10SM CLR 31/21 A3023 RMK AO2 T03080206 =
2016-08-28 11:35 METAR KW99 281535Z AUTO 07003KT 10SM SCT055 30/21 A3024 RMK AO2 T03030210 =
2016-08-28 11:15 METAR KW99 281515Z AUTO 36003KT 10SM SCT055 29/21 A3025 RMK AO2 T02910210 =
2016-08-28 10:55 METAR KW99 281455Z AUTO 00000KT 10SM CLR 29/21 A3026 RMK AO2 T02870211 =
2016-08-28 10:35 METAR KW99 281435Z AUTO 00000KT 10SM CLR 28/21 A3026 RMK AO2 T02750210 =
2016-08-28 10:15 METAR KW99 281415Z AUTO 00000KT 10SM CLR 27/22 A3026 RMK AO2 T02690215 =
2016-08-28 09:55 METAR KW99 281355Z AUTO 00000KT 10SM CLR 25/21 A3027 RMK AO2 T02530214 =
2016-08-28 09:35 METAR KW99 281335Z AUTO 00000KT 10SM CLR 25/21 A3027 RMK AO2 T02450214
2016-08-28 09:15 METAR KW99 281315Z AUTO 00000KT 10SM SCT060 SCT065 24/22 A3027 RMK AO2 T02350215
                 =
2016-08-28 08:55 METAR KW99 281255Z AUTO 00000KT 10SM OVC060 23/21 A3026 RMK AO2 T02310212 =
2016-08-28 08:35 METAR KW99 281235Z AUTO 00000KT 7SM OVC060 22/21 A3027 RMK AO2 T02230209 =
2016-08-28 08:15 METAR KW99 281215Z AUTO 00000KT 4SM BR BKN060 21/21 A3026 RMK AO2 T02110205 =
2016-08-28 07:50 METAR KW99 281150Z AUTO 00000KT 4SM BR OVC060 21/20 A3026 RMK AO2 T02050200
                 10210 20188 =
2016-08-28 07:35 METAR KW99 281135Z AUTO 00000KT 4SM BR OVC060 20/20 A3026 RMK AO2 T02000196 =
2016-08-28 07:15 METAR KW99 281115Z AUTO 00000KT 4SM BR BKN060 20/19 A3026 RMK AO2 T01950191 =
2016-08-28 06:55 METAR KW99 281055Z AUTO 00000KT 4SM BR CLR 19/19 A3025 RMK AO2 T01890185 =
2016-08-28 06:35 METAR KW99 281035Z AUTO 00000KT 4SM BR CLR 19/19 A3024 RMK AO2 T01930190 =
2016-08-28 06:15 METAR KW99 281015Z AUTO 00000KT 4SM BR CLR 20/19 A3023 RMK AO2 T01950193 =
2016-08-28 05:55 METAR KW99 280955Z AUTO 00000KT 5SM BR CLR 19/19 A3022 RMK AO2 T01920190 =
2016-08-28 05:35 METAR KW99 280935Z AUTO 00000KT 2SM BR CLR 20/19 A3022 RMK AO2 VIS 1/2V5
                 T01950192 =
2016-08-28 05:15 METAR KW99 280915Z AUTO 00000KT 3SM BR CLR 20/20 A3022 RMK AO2 T02000198 =
2016-08-28 04:55 METAR KW99 280855Z AUTO 00000KT 4SM BR CLR 20/20 A3022 RMK AO2 T02010199 =
2016-08-28 04:35 METAR KW99 280835Z AUTO 00000KT 5SM BR CLR 20/19 A3022 RMK AO2 T01960193 =
2016-08-28 04:15 METAR KW99 280815Z AUTO 00000KT 4SM BR CLR 21/20 A3021 RMK AO2 T02050203 =
2016-08-28 03:55 METAR KW99 280755Z AUTO 00000KT 4SM BR CLR 20/20 A3021 RMK AO2 T02000196 =
2016-08-28 03:35 METAR KW99 280735Z AUTO 00000KT 2SM BR CLR 21/20 A3021 RMK AO2 T02060204 =
2016-08-28 03:15 METAR KW99 280715Z AUTO 00000KT 4SM BR CLR 21/20 A3020 RMK AO2 T02050202 =
2016-08-28 02:55 METAR KW99 280655Z AUTO 00000KT 5SM BR CLR 21/20 A3020 RMK AO2 T02060203 =
2016-08-28 02:35 METAR KW99 280635Z AUTO 28003KT 7SM CLR 21/20 A3020 RMK AO2 T02070200 =
2016-08-28 02:15 METAR KW99 280615Z AUTO 00000KT 7SM CLR 21/20 A3019 RMK AO2 T02080201 =
2016-08-28 01:55 METAR KW99 280555Z AUTO 00000KT 5SM BR CLR 21/21 A3020 RMK AO2 T02110207 10291
                 20210 403410185 =
2016-08-28 01:30 METAR KW99 280530Z AUTO 00000KT 5SM BR CLR 21/21 A3020 RMK AO2 T02110207 =
2016-08-28 01:15 METAR KW99 280515Z AUTO 00000KT 2 1/2SM BR CLR 22/21 A3020 RMK AO2 VIS 1 1/2V3
                 T02160213 =
2016-08-28 00:55 METAR KW99 280455Z AUTO 00000KT 5SM BR CLR 22/21 A3020 RMK AO2 T02160210 =
2016-08-28 00:35 METAR KW99 280435Z AUTO 00000KT 7SM CLR 22/21 A3020 RMK AO2 T02170209 =
2016-08-28 00:10 METAR KW99 280410Z AUTO 00000KT 7SM CLR 22/22 A3021 RMK AO2 T02210215 =
2016-08-27 23:55 METAR KW99 280355Z AUTO 00000KT 7SM CLR 22/21 A3021 RMK AO2 T02200213 =
2016-08-27 23:35 METAR KW99 280335Z AUTO 00000KT 10SM CLR 22/21 A3021 RMK AO2 LTG DSNT SW
                 T02210211 =
2016-08-27 23:15 METAR KW99 280315Z AUTO 00000KT 10SM CLR 23/21 A3021 RMK AO2 T02260212 =
2016-08-27 22:55 METAR KW99 280255Z AUTO 00000KT 10SM CLR 23/22 A3021 RMK AO2 T02260217 =
2016-08-27 22:35 METAR KW99 280235Z AUTO 00000KT 10SM CLR 23/22 A3021 RMK AO2 T02310215 =
2016-08-27 22:15 METAR KW99 280215Z AUTO 00000KT 10SM CLR 24/22 A3021 RMK AO2 T02390218 =
2016-08-27 21:55 METAR KW99 280155Z AUTO 00000KT 10SM CLR 24/22 A3020 RMK AO2 T02390219 =
2016-08-27 21:35 METAR KW99 280135Z AUTO 28003KT 10SM CLR 25/22 A3020 RMK AO2 T02480222 =
2016-08-27 21:15 METAR KW99 280115Z AUTO 00000KT 10SM CLR 25/22 A3019 RMK AO2 T02510223 =
2016-08-27 20:55 METAR KW99 280055Z AUTO 30003KT 10SM CLR 25/22 A3019 RMK AO2 LTG DSNT W
                 T02520221 =
2016-08-27 20:30 METAR KW99 280030Z AUTO 00000KT 10SM CLR 26/22 A3017 RMK AO2 LTG DSNT W
                 T02640221 =
2016-08-27 20:15 METAR KW99 280015Z AUTO 00000KT 10SM CLR 28/22 A3017 RMK AO2 LTG DSNT SW AND NW
                 T02800215 =
2016-08-27 19:55 METAR KW99 272355Z AUTO 09003KT 10SM CLR 29/21 A3016 RMK AO2 LTG DSNT NW
                 T02910214 10341 20290 =
2016-08-27 19:35 METAR KW99 272335Z AUTO 11005KT 10SM CLR 30/21 A3015 RMK AO2 LTG DSNT W
                 T02990213 =
2016-08-27 19:15 METAR KW99 272315Z AUTO 10006KT 10SM CLR 30/22 A3014 RMK AO2 LTG DSNT W AND NW
                 T03030215 =
2016-08-27 18:55 METAR KW99 272255Z AUTO 11007KT 10SM CLR 31/22 A3013 RMK AO2 LTG DSNT W
                 T03120215 =
2016-08-27 18:35 METAR KW99 272235Z AUTO 13008KT 10SM CLR 32/21 A3013 RMK AO2 LTG DSNT W
                 T03220211 =
2016-08-27 18:15 METAR KW99 272215Z AUTO 13007KT 10SM CLR 33/21 A3012 RMK AO2 T03280206 =
2016-08-27 17:55 METAR KW99 272155Z AUTO 12006KT 10SM CLR 33/20 A3012 RMK AO2 LTG DSNT W
                 T03320202 =
2016-08-27 17:35 METAR KW99 272135Z AUTO 13006KT 10SM SCT065 34/20 A3012 RMK AO2 T03350198 =
2016-08-27 17:15 METAR KW99 272115Z AUTO 09006KT 10SM CLR 33/20 A3012 RMK AO2 LTG DSNT W
                 T03310198 =
2016-08-27 16:55 METAR KW99 272055Z AUTO 07006KT 10SM SCT065 34/20 A3012 RMK AO2 T03370195 =
2016-08-27 16:35 METAR KW99 272035Z AUTO 07005KT 10SM SCT065 33/20 A3013 RMK AO2 T03290200 =

Support USWX by starting your Amazon purchase here.